Time;durP1;ratioP1;P1;durP2;ratioP2;P2;SDS_P1;SDS_P2;PMS_P1;PMS_P2;Temp;Humidity;BMP_temperature;BMP_pressure;BME280_temperature;BME280_humidity;BME280_pressure;Samples;Min_cycle;Max_cycle;Signal;HPM_P1;HPM_P2
2023/01/22 00:01:29;;;;;;;1.73;0.70;;;;;;;;;;5010942;28;20192;-51
2023/01/22 00:03:55;;;;;;;0.70;0.70;;;;;;;;;;5013042;28;20213;-51
2023/01/22 00:06:22;;;;;;;0.68;0.68;;;;;;;;;;5005290;28;20200;-51
2023/01/22 00:08:48;;;;;;;0.82;0.70;;;;;;;;;;5015272;28;20226;-51
2023/01/22 00:11:14;;;;;;;0.60;0.60;;;;;;;;;;5014914;28;20578;-51
2023/01/22 00:13:40;;;;;;;1.58;0.60;;;;;;;;;;5013365;28;20176;-51
2023/01/22 00:16:07;;;;;;;0.80;0.80;;;;;;;;;;5015360;28;20196;-51
2023/01/22 00:18:33;;;;;;;0.60;0.60;;;;;;;;;;5012409;28;20185;-51
2023/01/22 00:20:59;;;;;;;0.60;0.60;;;;;;;;;;5013161;28;20199;-51
2023/01/22 00:23:25;;;;;;;0.65;0.65;;;;;;;;;;5012574;28;20295;-51
2023/01/22 00:26:20;;;;;;;0.68;0.68;;;;;;;;;;5007844;28;20296;-52
2023/01/22 00:28:46;;;;;;;0.52;0.52;;;;;;;;;;5007512;28;20207;-51
2023/01/22 00:31:13;;;;;;;1.30;0.60;;;;;;;;;;5012644;28;20188;-51
2023/01/22 00:33:39;;;;;;;0.57;0.57;;;;;;;;;;5010625;28;20182;-51
2023/01/22 00:36:06;;;;;;;0.65;0.65;;;;;;;;;;5013758;28;20217;-51
2023/01/22 00:38:32;;;;;;;0.40;0.40;;;;;;;;;;5013481;28;20196;-51
2023/01/22 00:41:02;;;;;;;1.05;0.60;;;;;;;;;;5008178;28;20189;-51
2023/01/22 00:43:29;;;;;;;0.63;0.55;;;;;;;;;;5014094;28;20192;-51
2023/01/22 00:45:55;;;;;;;0.63;0.63;;;;;;;;;;5011534;28;20192;-51
2023/01/22 00:48:21;;;;;;;0.70;0.70;;;;;;;;;;5009029;28;20226;-51
2023/01/22 00:50:47;;;;;;;0.50;0.50;;;;;;;;;;5013555;28;20187;-51
2023/01/22 00:53:12;;;;;;;0.80;0.80;;;;;;;;;;5015390;28;20597;-51
2023/01/22 00:55:38;;;;;;;0.80;0.80;;;;;;;;;;5008690;28;20188;-51
2023/01/22 00:58:04;;;;;;;0.50;0.50;;;;;;;;;;5012647;28;20200;-51
2023/01/22 01:00:30;;;;;;;0.57;0.57;;;;;;;;;;5010951;28;20188;-51
2023/01/22 01:05:41;;;;;;;0.70;0.70;;;;;;;;;;5010299;28;20195;-51
2023/01/22 01:08:07;;;;;;;0.77;0.77;;;;;;;;;;5015302;28;20201;-52
2023/01/22 01:10:33;;;;;;;0.60;0.60;;;;;;;;;;5007888;28;20195;-51
2023/01/22 01:12:59;;;;;;;0.60;0.60;;;;;;;;;;5013748;28;20590;-52
2023/01/22 01:15:25;;;;;;;1.10;0.60;;;;;;;;;;5008247;28;20204;-51
2023/01/22 01:17:50;;;;;;;0.63;0.63;;;;;;;;;;5010731;28;20451;-51
2023/01/22 01:20:16;;;;;;;0.70;0.70;;;;;;;;;;5006159;28;20582;-51
2023/01/22 01:22:42;;;;;;;0.55;0.55;;;;;;;;;;5014099;28;20266;-51
2023/01/22 01:25:08;;;;;;;0.55;0.55;;;;;;;;;;5003238;28;20188;-51
2023/01/22 01:27:34;;;;;;;0.63;0.60;;;;;;;;;;5008103;28;20520;-51
2023/01/22 01:30:00;;;;;;;0.70;0.70;;;;;;;;;;5011270;28;20226;-51
2023/01/22 01:32:26;;;;;;;0.77;0.77;;;;;;;;;;5012252;28;20192;-51
2023/01/22 01:34:52;;;;;;;0.40;0.40;;;;;;;;;;5010365;28;20197;-52
2023/01/22 01:37:17;;;;;;;0.65;0.65;;;;;;;;;;5014759;28;20188;-52
2023/01/22 01:39:43;;;;;;;1.08;0.63;;;;;;;;;;5009004;28;20798;-51
2023/01/22 01:42:09;;;;;;;0.68;0.68;;;;;;;;;;5014058;28;20188;-51
2023/01/22 01:44:36;;;;;;;0.68;0.68;;;;;;;;;;5017466;28;20223;-51
2023/01/22 01:47:07;;;;;;;0.63;0.63;;;;;;;;;;5017513;28;20215;-52
2023/01/22 01:49:37;;;;;;;0.60;0.60;;;;;;;;;;5014869;28;20196;-51
2023/01/22 01:52:06;;;;;;;0.70;0.70;;;;;;;;;;5015955;28;20451;-51
2023/01/22 01:54:32;;;;;;;0.82;0.82;;;;;;;;;;5016753;28;20185;-52
2023/01/22 01:57:01;;;;;;;0.52;0.52;;;;;;;;;;5011061;28;20196;-52
2023/01/22 01:59:27;;;;;;;0.73;0.60;;;;;;;;;;5015143;28;20200;-52
2023/01/22 02:01:54;;;;;;;0.70;0.70;;;;;;;;;;5010997;28;20189;-52
2023/01/22 02:04:21;;;;;;;0.70;0.70;;;;;;;;;;5014374;28;20267;-52
2023/01/22 02:06:47;;;;;;;0.57;0.57;;;;;;;;;;5004241;28;20216;-51
2023/01/22 02:09:13;;;;;;;0.70;0.70;;;;;;;;;;5014907;28;20208;-51
2023/01/22 02:11:40;;;;;;;0.70;0.70;;;;;;;;;;5017403;28;20187;-51
2023/01/22 02:14:11;;;;;;;0.63;0.63;;;;;;;;;;5014655;28;20440;-52
2023/01/22 02:16:37;;;;;;;0.70;0.70;;;;;;;;;;5016218;28;20594;-52
2023/01/22 02:19:04;;;;;;;0.80;0.80;;;;;;;;;;5010608;28;20204;-52
2023/01/22 02:21:31;;;;;;;0.70;0.70;;;;;;;;;;5016075;28;20177;-52
2023/01/22 02:23:57;;;;;;;0.50;0.50;;;;;;;;;;5014770;28;20185;-52
2023/01/22 02:26:23;;;;;;;0.52;0.52;;;;;;;;;;5010870;28;20271;-52
2023/01/22 02:28:49;;;;;;;0.60;0.60;;;;;;;;;;5009761;28;20273;-52
2023/01/22 02:31:15;;;;;;;0.70;0.70;;;;;;;;;;5011010;28;20264;-52
2023/01/22 02:33:41;;;;;;;0.80;0.80;;;;;;;;;;5007888;28;20184;-52
2023/01/22 02:36:07;;;;;;;0.70;0.70;;;;;;;;;;5015254;28;20263;-52
2023/01/22 02:38:33;;;;;;;0.90;0.88;;;;;;;;;;5011255;28;20450;-52
2023/01/22 02:40:59;;;;;;;1.05;0.70;;;;;;;;;;5009218;28;20196;-52
2023/01/22 02:43:25;;;;;;;0.60;0.60;;;;;;;;;;5013706;28;20442;-52
2023/01/22 02:45:52;;;;;;;0.70;0.70;;;;;;;;;;5011076;28;20225;-52
2023/01/22 02:48:18;;;;;;;0.70;0.70;;;;;;;;;;5010338;28;20262;-51
2023/01/22 02:50:44;;;;;;;0.77;0.77;;;;;;;;;;5011436;28;20180;-51
2023/01/22 02:53:10;;;;;;;0.75;0.75;;;;;;;;;;5014745;28;20192;-51
2023/01/22 02:55:37;;;;;;;0.80;0.80;;;;;;;;;;5012644;28;20191;-52
2023/01/22 02:58:03;;;;;;;0.93;0.88;;;;;;;;;;5014033;28;20185;-52
2023/01/22 03:00:29;;;;;;;0.93;0.93;;;;;;;;;;5010670;28;20198;-52
2023/01/22 03:02:55;;;;;;;0.80;0.80;;;;;;;;;;5009281;28;20282;-52
2023/01/22 03:05:21;;;;;;;0.77;0.77;;;;;;;;;;5009478;28;20188;-52
2023/01/22 03:07:47;;;;;;;0.80;0.70;;;;;;;;;;5016693;28;20593;-52
2023/01/22 03:10:17;;;;;;;0.82;0.82;;;;;;;;;;5013669;28;20204;-52
2023/01/22 03:21:17;;;;;;;0.70;0.70;;;;;;;;;;5009056;28;20243;-52
2023/01/22 03:24:01;;;;;;;0.90;0.90;;;;;;;;;;5015440;28;20176;-52
2023/01/22 03:26:30;;;;;;;0.80;0.80;;;;;;;;;;5008299;28;20579;-52
2023/01/22 03:28:56;;;;;;;1.00;0.93;;;;;;;;;;5006987;28;20185;-52
2023/01/22 03:31:22;;;;;;;1.00;1.00;;;;;;;;;;5012868;28;20757;-52
2023/01/22 03:33:48;;;;;;;0.90;0.90;;;;;;;;;;5009611;28;20192;-52
2023/01/22 03:36:14;;;;;;;0.73;0.73;;;;;;;;;;5014464;28;20188;-52
2023/01/22 03:38:40;;;;;;;0.80;0.80;;;;;;;;;;5010891;28;20235;-52
2023/01/22 03:41:08;;;;;;;1.00;0.98;;;;;;;;;;5014940;28;20533;-52
2023/01/22 03:43:34;;;;;;;0.77;0.77;;;;;;;;;;5014528;28;20223;-52
2023/01/22 03:46:05;;;;;;;1.20;1.10;;;;;;;;;;5012029;28;20585;-52
2023/01/22 03:48:31;;;;;;;0.70;0.70;;;;;;;;;;5009296;28;20216;-52
2023/01/22 03:50:57;;;;;;;0.77;0.77;;;;;;;;;;5010130;28;20184;-52
2023/01/22 03:53:23;;;;;;;0.90;0.90;;;;;;;;;;5015152;28;20180;-52
2023/01/22 03:55:58;;;;;;;0.80;0.80;;;;;;;;;;5002035;28;20212;-52
2023/01/22 03:58:24;;;;;;;0.60;0.60;;;;;;;;;;5015351;28;20180;-52
2023/01/22 04:00:50;;;;;;;1.05;0.95;;;;;;;;;;5012705;28;20184;-52
2023/01/22 04:03:16;;;;;;;0.80;0.80;;;;;;;;;;5012516;28;20242;-52
2023/01/22 04:05:42;;;;;;;1.00;1.00;;;;;;;;;;5002358;28;20189;-52
2023/01/22 04:08:08;;;;;;;0.73;0.73;;;;;;;;;;5010141;28;20604;-52
2023/01/22 04:10:34;;;;;;;0.77;0.75;;;;;;;;;;5013581;28;20216;-52
2023/01/22 04:13:00;;;;;;;0.88;0.88;;;;;;;;;;5014743;28;20184;-52
2023/01/22 04:15:26;;;;;;;0.70;0.70;;;;;;;;;;5008655;28;20620;-52
2023/01/22 04:17:52;;;;;;;0.90;0.90;;;;;;;;;;5014857;28;20185;-52
2023/01/22 04:20:18;;;;;;;0.88;0.80;;;;;;;;;;5005099;28;20271;-52
2023/01/22 04:22:43;;;;;;;0.70;0.70;;;;;;;;;;5009634;28;20455;-52
2023/01/22 04:25:09;;;;;;;1.08;0.88;;;;;;;;;;5011857;28;20188;-52
2023/01/22 04:27:36;;;;;;;1.10;1.00;;;;;;;;;;5008718;28;20291;-52
2023/01/22 04:30:03;;;;;;;0.90;0.80;;;;;;;;;;5012385;28;20618;-52
2023/01/22 04:32:29;;;;;;;0.80;0.80;;;;;;;;;;5011251;28;20192;-52
2023/01/22 04:34:55;;;;;;;0.90;0.90;;;;;;;;;;5009901;28;20380;-52
2023/01/22 04:37:21;;;;;;;0.88;0.88;;;;;;;;;;5010115;28;20255;-52
2023/01/22 04:39:47;;;;;;;0.88;0.88;;;;;;;;;;5008540;28;20200;-52
2023/01/22 04:42:13;;;;;;;0.93;0.90;;;;;;;;;;5009170;28;20181;-52
2023/01/22 04:44:39;;;;;;;0.82;0.82;;;;;;;;;;5013863;28;20436;-52
2023/01/22 04:47:05;;;;;;;0.90;0.90;;;;;;;;;;5015019;28;20219;-52
2023/01/22 04:49:31;;;;;;;0.60;0.60;;;;;;;;;;5007965;28;20615;-52
2023/01/22 04:51:57;;;;;;;0.75;0.75;;;;;;;;;;5002951;28;20240;-52
2023/01/22 04:54:22;;;;;;;0.98;0.90;;;;;;;;;;5003983;28;20191;-52
2023/01/22 04:56:48;;;;;;;0.95;0.88;;;;;;;;;;5007728;28;20176;-52
2023/01/22 04:59:14;;;;;;;0.70;0.70;;;;;;;;;;5011871;28;20591;-52
2023/01/22 05:01:41;;;;;;;0.80;0.80;;;;;;;;;;5009611;28;20188;-52
2023/01/22 05:04:07;;;;;;;0.85;0.82;;;;;;;;;;5014332;28;20188;-52
2023/01/22 05:06:32;;;;;;;0.68;0.68;;;;;;;;;;5008270;28;20230;-52
2023/01/22 05:08:58;;;;;;;0.95;0.82;;;;;;;;;;5011601;28;20210;-52
2023/01/22 05:11:24;;;;;;;0.57;0.57;;;;;;;;;;5010987;28;20184;-52
2023/01/22 05:13:50;;;;;;;0.80;0.80;;;;;;;;;;5011985;28;20180;-52
2023/01/22 05:16:16;;;;;;;0.82;0.82;;;;;;;;;;5011524;28;20654;-52
2023/01/22 05:18:42;;;;;;;0.82;0.80;;;;;;;;;;5015075;28;20184;-52
2023/01/22 05:21:08;;;;;;;0.93;0.82;;;;;;;;;;5008979;28;20195;-52
2023/01/22 05:23:34;;;;;;;2.00;0.70;;;;;;;;;;5013934;28;20591;-51
2023/01/22 05:26:00;;;;;;;3.00;1.00;;;;;;;;;;5000126;28;20212;-51
2023/01/22 05:28:27;;;;;;;1.38;0.90;;;;;;;;;;5009608;28;20631;-52
2023/01/22 05:30:52;;;;;;;1.45;0.63;;;;;;;;;;5009099;28;20192;-52
2023/01/22 05:33:18;;;;;;;1.25;0.88;;;;;;;;;;5012952;28;20188;-52
2023/01/22 05:35:44;;;;;;;1.05;0.95;;;;;;;;;;5014389;28;20177;-52
2023/01/22 05:38:10;;;;;;;1.05;0.80;;;;;;;;;;5025004;28;20772;-52
2023/01/22 05:40:36;;;;;;;0.90;0.70;;;;;;;;;;5012841;28;20184;-52
2023/01/22 05:43:03;;;;;;;1.77;0.80;;;;;;;;;;5013401;28;20188;-52
2023/01/22 05:45:29;;;;;;;0.80;0.80;;;;;;;;;;5010288;28;20296;-52
2023/01/22 05:47:54;;;;;;;0.63;0.63;;;;;;;;;;5014652;28;20283;-52
2023/01/22 05:50:21;;;;;;;1.10;0.75;;;;;;;;;;5002676;28;20465;-52
2023/01/22 05:52:47;;;;;;;0.80;0.70;;;;;;;;;;5012527;28;20231;-52
2023/01/22 05:55:13;;;;;;;0.75;0.75;;;;;;;;;;5010723;28;20184;-52
2023/01/22 05:57:39;;;;;;;0.73;0.63;;;;;;;;;;5007183;28;20215;-52
2023/01/22 06:00:07;;;;;;;2.40;1.00;;;;;;;;;;5007411;28;20212;-50
2023/01/22 06:02:34;;;;;;;3.45;1.02;;;;;;;;;;5013643;28;20173;-50
2023/01/22 06:05:00;;;;;;;2.65;1.23;;;;;;;;;;5007468;28;20568;-50
2023/01/22 06:07:26;;;;;;;3.13;1.05;;;;;;;;;;5007578;28;20295;-50
2023/01/22 06:09:52;;;;;;;5.28;1.50;;;;;;;;;;5007893;28;20264;-49
2023/01/22 06:12:18;;;;;;;2.15;1.13;;;;;;;;;;5009991;28;20197;-50
2023/01/22 06:14:44;;;;;;;4.72;1.40;;;;;;;;;;5012285;28;20181;-50
2023/01/22 06:17:09;;;;;;;4.25;1.35;;;;;;;;;;5013283;28;20280;-50
2023/01/22 06:19:36;;;;;;;2.15;1.17;;;;;;;;;;5009800;28;20498;-50
2023/01/22 06:22:02;;;;;;;5.50;1.70;;;;;;;;;;5009722;28;20177;-49
2023/01/22 06:24:28;;;;;;;5.70;1.60;;;;;;;;;;5007394;28;20188;-49
2023/01/22 06:26:55;;;;;;;2.67;1.80;;;;;;;;;;5004885;28;20359;-50
2023/01/22 06:29:20;;;;;;;2.10;1.40;;;;;;;;;;5002939;28;20204;-49
2023/01/22 06:31:46;;;;;;;4.32;1.45;;;;;;;;;;5007119;28;20225;-49
2023/01/22 06:34:12;;;;;;;3.40;1.50;;;;;;;;;;5013067;28;20326;-50
2023/01/22 06:36:38;;;;;;;2.78;1.33;;;;;;;;;;5016510;28;20184;-50
2023/01/22 06:39:04;;;;;;;4.63;1.50;;;;;;;;;;5017311;28;20185;-50
2023/01/22 06:41:30;;;;;;;5.15;1.58;;;;;;;;;;5015719;28;20184;-50
2023/01/22 06:43:56;;;;;;;2.30;1.23;;;;;;;;;;5016322;28;20192;-50
2023/01/22 06:46:22;;;;;;;1.73;1.40;;;;;;;;;;5017049;28;20652;-50
2023/01/22 06:48:48;;;;;;;2.33;1.60;;;;;;;;;;5013261;28;20208;-50
2023/01/22 06:51:14;;;;;;;2.17;1.40;;;;;;;;;;5010715;28;20189;-50
2023/01/22 06:53:40;;;;;;;1.20;1.10;;;;;;;;;;5016723;28;20579;-50
2023/01/22 06:56:06;;;;;;;1.67;1.38;;;;;;;;;;5012902;28;20485;-49
2023/01/22 06:58:32;;;;;;;3.33;1.50;;;;;;;;;;5011515;28;20193;-50
2023/01/22 07:01:02;;;;;;;2.40;1.45;;;;;;;;;;5004548;28;20188;-50
2023/01/22 07:03:28;;;;;;;2.50;1.50;;;;;;;;;;5002664;28;20234;-50
2023/01/22 07:05:57;;;;;;;3.53;1.67;;;;;;;;;;5008131;28;20184;-50
2023/01/22 07:08:23;;;;;;;4.28;1.65;;;;;;;;;;5014929;28;20299;-50
2023/01/22 07:10:49;;;;;;;3.92;1.70;;;;;;;;;;5002848;28;20181;-50
2023/01/22 07:13:15;;;;;;;2.85;1.60;;;;;;;;;;5006402;28;20204;-50
2023/01/22 07:15:42;;;;;;;1.92;1.65;;;;;;;;;;5016179;28;20563;-50
2023/01/22 07:18:09;;;;;;;2.58;1.65;;;;;;;;;;5015241;28;20184;-50
2023/01/22 07:20:35;;;;;;;2.85;1.90;;;;;;;;;;5010488;28;20185;-50
2023/01/22 07:23:01;;;;;;;4.47;1.80;;;;;;;;;;5013464;28;20199;-50
2023/01/22 07:25:27;;;;;;;2.00;1.80;;;;;;;;;;5013019;28;20188;-50
2023/01/22 07:27:58;;;;;;;4.97;2.28;;;;;;;;;;5016083;28;20259;-50
2023/01/22 07:30:24;;;;;;;5.22;1.90;;;;;;;;;;5011188;28;20173;-50
2023/01/22 07:32:50;;;;;;;5.10;2.20;;;;;;;;;;5015248;28;20192;-50
2023/01/22 07:35:17;;;;;;;5.00;2.00;;;;;;;;;;5010522;28;20554;-50
2023/01/22 07:37:43;;;;;;;3.33;1.88;;;;;;;;;;5014635;28;20242;-50
2023/01/22 07:40:09;;;;;;;4.90;1.85;;;;;;;;;;5014789;28;20184;-50
2023/01/22 07:42:36;;;;;;;3.20;1.80;;;;;;;;;;5012924;28;20199;-50
2023/01/22 07:45:02;;;;;;;3.67;1.80;;;;;;;;;;5004445;28;20196;-50
2023/01/22 07:47:28;;;;;;;3.92;2.00;;;;;;;;;;5015306;28;20263;-49
2023/01/22 07:49:54;;;;;;;3.00;1.92;;;;;;;;;;5009593;28;20189;-50
2023/01/22 07:52:20;;;;;;;4.20;2.00;;;;;;;;;;5016763;28;20184;-50
2023/01/22 07:54:46;;;;;;;2.92;1.73;;;;;;;;;;5008076;28;20374;-50
2023/01/22 07:57:14;;;;;;;6.30;2.20;;;;;;;;;;5013699;28;20230;-50
2023/01/22 07:59:40;;;;;;;4.22;1.90;;;;;;;;;;5007077;28;20188;-50
2023/01/22 08:02:08;;;;;;;3.55;2.22;;;;;;;;;;5010358;28;20192;-50
2023/01/22 08:04:34;;;;;;;3.28;2.22;;;;;;;;;;5011076;28;20199;-50
2023/01/22 08:07:00;;;;;;;8.73;2.15;;;;;;;;;;5011533;28;20204;-49
2023/01/22 08:09:26;;;;;;;5.18;2.22;;;;;;;;;;5010139;28;20193;-50
2023/01/22 08:11:52;;;;;;;5.55;2.28;;;;;;;;;;5016352;28;20192;-50
2023/01/22 08:14:19;;;;;;;5.45;1.90;;;;;;;;;;5013493;28;20184;-50
2023/01/22 08:16:44;;;;;;;3.47;2.08;;;;;;;;;;5014316;28;20537;-50
2023/01/22 08:19:10;;;;;;;5.25;2.08;;;;;;;;;;5010868;28;20181;-49
2023/01/22 08:21:36;;;;;;;4.10;2.22;;;;;;;;;;5013498;28;20193;-50
2023/01/22 08:24:03;;;;;;;4.90;2.40;;;;;;;;;;5012802;28;20265;-51
2023/01/22 08:26:29;;;;;;;6.07;2.15;;;;;;;;;;5014361;28;20196;-49
2023/01/22 08:28:55;;;;;;;6.75;2.28;;;;;;;;;;5012467;28;20305;-47
2023/01/22 08:31:21;;;;;;;5.30;2.08;;;;;;;;;;5013147;28;20260;-52
2023/01/22 08:33:47;;;;;;;7.97;2.53;;;;;;;;;;5013375;28;20235;-48
2023/01/22 08:36:13;;;;;;;4.30;2.38;;;;;;;;;;5014034;28;20189;-48
2023/01/22 08:38:39;;;;;;;4.32;1.98;;;;;;;;;;5014943;28;20196;-47
2023/01/22 08:41:05;;;;;;;5.72;2.33;;;;;;;;;;5010848;28;20223;-47
2023/01/22 08:43:31;;;;;;;4.32;2.30;;;;;;;;;;5011836;28;20299;-48
2023/01/22 08:45:57;;;;;;;4.90;1.92;;;;;;;;;;5007823;28;20220;-48
2023/01/22 08:48:22;;;;;;;7.57;2.00;;;;;;;;;;5012937;28;20245;-48
2023/01/22 08:50:48;;;;;;;7.00;2.35;;;;;;;;;;5007118;28;20259;-48
2023/01/22 08:53:14;;;;;;;3.72;2.25;;;;;;;;;;5010667;28;20180;-48
2023/01/22 08:55:40;;;;;;;4.55;2.53;;;;;;;;;;5006662;28;20185;-48
2023/01/22 08:58:06;;;;;;;6.55;2.53;;;;;;;;;;5004475;28;20265;-47
2023/01/22 09:00:32;;;;;;;6.97;2.17;;;;;;;;;;5012044;28;20196;-47
2023/01/22 09:02:59;;;;;;;5.45;2.20;;;;;;;;;;5011384;28;20495;-47
2023/01/22 09:05:25;;;;;;;3.65;2.08;;;;;;;;;;5008193;28;20212;-47
2023/01/22 09:07:51;;;;;;;5.60;2.83;;;;;;;;;;5007092;28;20204;-47
2023/01/22 09:10:17;;;;;;;4.63;2.15;;;;;;;;;;5011232;28;20184;-47
2023/01/22 09:12:43;;;;;;;6.78;2.53;;;;;;;;;;5005266;28;20187;-48
2023/01/22 09:15:09;;;;;;;3.58;2.20;;;;;;;;;;5009296;28;20304;-47
2023/01/22 09:17:35;;;;;;;4.13;2.50;;;;;;;;;;5014162;28;20606;-47
2023/01/22 09:20:01;;;;;;;5.63;2.63;;;;;;;;;;5004237;28;20199;-47
2023/01/22 09:22:27;;;;;;;5.45;2.40;;;;;;;;;;5012291;28;20203;-47
2023/01/22 09:24:53;;;;;;;6.88;3.00;;;;;;;;;;5013394;28;20226;-47
2023/01/22 09:27:19;;;;;;;5.55;2.42;;;;;;;;;;5012931;28;20331;-47
2023/01/22 09:29:45;;;;;;;5.22;2.60;;;;;;;;;;5010581;28;20183;-47
2023/01/22 09:32:11;;;;;;;5.82;2.75;;;;;;;;;;5014652;28;20263;-47
2023/01/22 09:34:37;;;;;;;3.28;2.58;;;;;;;;;;5008433;28;20180;-48
2023/01/22 09:37:06;;;;;;;5.82;2.85;;;;;;;;;;5012911;28;20207;-48
2023/01/22 09:39:32;;;;;;;2.85;2.50;;;;;;;;;;5013248;28;20187;-48
2023/01/22 09:42:00;;;;;;;4.30;2.63;;;;;;;;;;5007966;28;20188;-47
2023/01/22 09:44:32;;;;;;;4.07;2.75;;;;;;;;;;5011130;28;20602;-47
2023/01/22 09:47:00;;;;;;;5.10;2.60;;;;;;;;;;5013731;28;20556;-47
2023/01/22 09:49:32;;;;;;;5.32;2.30;;;;;;;;;;5004109;28;20485;-47
2023/01/22 09:52:00;;;;;;;5.55;2.50;;;;;;;;;;5007574;28;20181;-47
2023/01/22 09:54:27;;;;;;;3.35;2.30;;;;;;;;;;5011164;28;20218;-47
2023/01/22 09:56:55;;;;;;;3.85;2.30;;;;;;;;;;5005386;28;20239;-47
2023/01/22 09:59:25;;;;;;;2.50;2.17;;;;;;;;;;5006282;28;20520;-47
2023/01/22 10:01:52;;;;;;;3.90;2.42;;;;;;;;;;5008340;28;20188;-47
2023/01/22 10:04:39;;;;;;;3.03;2.28;;;;;;;;;;5014123;28;20184;-47
2023/01/22 10:07:09;;;;;;;5.93;2.60;;;;;;;;;;5008110;28;20825;-47
2023/01/22 10:09:38;;;;;;;4.32;2.42;;;;;;;;;;5009863;28;20181;-47
2023/01/22 10:12:09;;;;;;;4.55;2.53;;;;;;;;;;5014406;28;20275;-47
2023/01/22 10:14:35;;;;;;;3.85;2.40;;;;;;;;;;5010853;28;20184;-47
2023/01/22 10:17:02;;;;;;;3.03;2.15;;;;;;;;;;5012966;28;20188;-48
2023/01/22 10:19:39;;;;;;;3.47;2.33;;;;;;;;;;5013929;28;20238;-47
2023/01/22 10:22:10;;;;;;;2.72;2.10;;;;;;;;;;5004641;28;20309;-47
2023/01/22 10:24:36;;;;;;;3.17;2.05;;;;;;;;;;5010104;28;20193;-47
2023/01/22 10:27:10;;;;;;;2.40;2.20;;;;;;;;;;5016471;28;20250;-47
2023/01/22 10:29:37;;;;;;;4.05;2.10;;;;;;;;;;5016017;28;20455;-47
2023/01/22 10:32:19;;;;;;;2.38;2.17;;;;;;;;;;5017038;28;20269;-47
2023/01/22 10:34:56;;;;;;;3.55;1.80;;;;;;;;;;5005084;28;20173;-47
2023/01/22 10:37:22;;;;;;;2.95;2.10;;;;;;;;;;5013779;28;20210;-47
2023/01/22 10:39:51;;;;;;;2.33;2.10;;;;;;;;;;5016227;28;20213;-47
2023/01/22 10:42:18;;;;;;;3.83;2.00;;;;;;;;;;5014419;28;20238;-47
2023/01/22 10:44:45;;;;;;;2.40;1.83;;;;;;;;;;5008240;28;20188;-47
2023/01/22 10:47:19;;;;;;;3.53;2.10;;;;;;;;;;5012774;28;20602;-47
2023/01/22 10:49:45;;;;;;;2.50;2.15;;;;;;;;;;5009015;28;20195;-47
2023/01/22 10:52:22;;;;;;;2.10;1.90;;;;;;;;;;5010264;28;20223;-47
2023/01/22 10:54:56;;;;;;;2.65;1.95;;;;;;;;;;5003974;28;20176;-47
2023/01/22 10:57:25;;;;;;;2.88;2.00;;;;;;;;;;5008026;28;20271;-47
2023/01/22 10:59:57;;;;;;;2.83;1.92;;;;;;;;;;5011070;28;20792;-47
2023/01/22 11:02:25;;;;;;;2.35;1.90;;;;;;;;;;5008204;28;20526;-47
2023/01/22 11:04:51;;;;;;;3.08;1.83;;;;;;;;;;5010724;28;20208;-47
2023/01/22 11:07:20;;;;;;;2.47;2.08;;;;;;;;;;5016552;28;20201;-47
2023/01/22 11:09:49;;;;;;;2.08;1.73;;;;;;;;;;5011713;28;20183;-47
2023/01/22 11:12:17;;;;;;;2.10;1.90;;;;;;;;;;5011995;28;20583;-47
2023/01/22 11:14:45;;;;;;;2.22;1.85;;;;;;;;;;5028093;28;20259;-47
2023/01/22 11:17:18;;;;;;;2.00;1.80;;;;;;;;;;5014759;28;20318;-47
2023/01/22 11:19:48;;;;;;;1.88;1.77;;;;;;;;;;5013527;28;20288;-47
2023/01/22 11:22:16;;;;;;;2.30;1.85;;;;;;;;;;5014188;28;20624;-47
2023/01/22 11:24:47;;;;;;;1.90;1.70;;;;;;;;;;5015181;28;20665;-47
2023/01/22 11:27:13;;;;;;;2.15;1.92;;;;;;;;;;5008723;28;20231;-47
2023/01/22 11:29:39;;;;;;;2.35;1.85;;;;;;;;;;5008312;28;20445;-47
2023/01/22 11:32:07;;;;;;;2.25;1.88;;;;;;;;;;5014516;28;20189;-47
2023/01/22 11:34:52;;;;;;;2.67;1.85;;;;;;;;;;5015202;28;20177;-47
2023/01/22 11:37:21;;;;;;;2.20;1.75;;;;;;;;;;5012936;28;20224;-47
2023/01/22 11:39:58;;;;;;;1.60;1.48;;;;;;;;;;5013861;28;20254;-47
2023/01/22 11:42:32;;;;;;;1.95;1.60;;;;;;;;;;5014722;28;20226;-47
2023/01/22 11:45:07;;;;;;;2.50;1.80;;;;;;;;;;5011975;28;20262;-47
2023/01/22 11:47:48;;;;;;;1.98;1.60;;;;;;;;;;5016124;28;20640;-47
2023/01/22 11:50:17;;;;;;;2.17;1.60;;;;;;;;;;5012687;28;20195;-47
2023/01/22 11:52:52;;;;;;;1.90;1.73;;;;;;;;;;5009916;28;20227;-47
2023/01/22 11:55:24;;;;;;;2.55;1.58;;;;;;;;;;5008472;28;20187;-47
2023/01/22 11:58:04;;;;;;;1.92;1.55;;;;;;;;;;5014261;28;20223;-47
2023/01/22 12:00:36;;;;;;;1.73;1.63;;;;;;;;;;5005888;28;20255;-47
2023/01/22 12:03:16;;;;;;;2.00;1.80;;;;;;;;;;5014329;28;20626;-47
2023/01/22 12:05:42;;;;;;;2.00;1.60;;;;;;;;;;5007898;28;20242;-47
2023/01/22 12:08:27;;;;;;;2.13;1.70;;;;;;;;;;5012899;28;20209;-47
2023/01/22 12:10:58;;;;;;;1.92;1.73;;;;;;;;;;5011593;28;20211;-47
2023/01/22 12:13:49;;;;;;;1.90;1.77;;;;;;;;;;5012129;28;20275;-47
2023/01/22 12:16:28;;;;;;;2.33;1.70;;;;;;;;;;5014600;28;20246;-47
2023/01/22 12:19:12;;;;;;;1.60;1.50;;;;;;;;;;5007126;28;20508;-47
2023/01/22 12:21:57;;;;;;;1.60;1.50;;;;;;;;;;5014519;28;20207;-47
2023/01/22 12:24:26;;;;;;;1.88;1.60;;;;;;;;;;5003504;28;20196;-47
2023/01/22 12:27:15;;;;;;;2.20;1.80;;;;;;;;;;5013456;28;20306;-47
2023/01/22 12:29:44;;;;;;;2.00;1.83;;;;;;;;;;5010150;28;20192;-46
2023/01/22 12:32:14;;;;;;;1.52;1.42;;;;;;;;;;5013098;28;20473;-46
2023/01/22 12:34:48;;;;;;;2.40;1.50;;;;;;;;;;5005653;28;20315;-46
2023/01/22 12:37:16;;;;;;;1.60;1.50;;;;;;;;;;5006828;28;20180;-46
2023/01/22 12:40:04;;;;;;;2.13;1.60;;;;;;;;;;5013655;28;20249;-47
2023/01/22 12:42:35;;;;;;;1.80;1.70;;;;;;;;;;5015290;28;20181;-47
2023/01/22 12:45:19;;;;;;;2.10;1.55;;;;;;;;;;5010455;28;20196;-47
2023/01/22 12:47:45;;;;;;;1.88;1.73;;;;;;;;;;5015064;28;20255;-47
2023/01/22 12:50:17;;;;;;;2.05;1.85;;;;;;;;;;5013144;28;20222;-47
2023/01/22 12:52:43;;;;;;;1.83;1.58;;;;;;;;;;5013763;28;20602;-46
2023/01/22 12:55:23;;;;;;;1.60;1.50;;;;;;;;;;5008041;28;20188;-46
2023/01/22 12:57:49;;;;;;;2.65;1.90;;;;;;;;;;5013756;28;20527;-46
2023/01/22 13:00:30;;;;;;;1.88;1.65;;;;;;;;;;5011292;28;20194;-46
2023/01/22 13:02:56;;;;;;;2.35;1.85;;;;;;;;;;5010196;28;20193;-46
2023/01/22 13:05:36;;;;;;;2.83;1.95;;;;;;;;;;5009037;28;20196;-46
2023/01/22 13:08:04;;;;;;;2.20;1.70;;;;;;;;;;5004532;28;20207;-46
2023/01/22 13:10:31;;;;;;;2.60;2.03;;;;;;;;;;5013797;28;20188;-46
2023/01/22 13:13:17;;;;;;;4.13;1.73;;;;;;;;;;5009816;28;20455;-46
2023/01/22 13:15:51;;;;;;;7.45;2.00;;;;;;;;;;5008700;28;20215;-46
2023/01/22 13:18:22;;;;;;;2.80;2.30;;;;;;;;;;5013310;28;20271;-46
2023/01/22 13:20:53;;;;;;;7.60;4.38;;;;;;;;;;5008067;28;20216;-46
2023/01/22 13:23:19;;;;;;;64.95;30.75;;;;;;;;;;5007888;28;20193;-46
2023/01/22 13:25:45;;;;;;;319.67;193.02;;;;;;;;;;5013302;28;20204;-46
2023/01/22 13:28:17;;;;;;;155.90;88.32;;;;;;;;;;5013624;28;20227;-46
2023/01/22 13:30:43;;;;;;;232.38;134.80;;;;;;;;;;5006301;28;20298;-46
2023/01/22 13:33:12;;;;;;;322.23;182.60;;;;;;;;;;5012564;28;20234;-46
2023/01/22 13:35:45;;;;;;;321.58;190.40;;;;;;;;;;5006386;28;20208;-48
2023/01/22 13:38:17;;;;;;;293.70;165.00;;;;;;;;;;5014585;28;20203;-48
2023/01/22 13:40:43;;;;;;;237.40;139.07;;;;;;;;;;5008340;28;20230;-48
2023/01/22 13:43:13;;;;;;;229.70;133.20;;;;;;;;;;5012917;28;21146;-48
2023/01/22 13:45:39;;;;;;;215.98;122.75;;;;;;;;;;5003221;28;20213;-47
2023/01/22 13:48:05;;;;;;;211.07;120.30;;;;;;;;;;5013310;28;20208;-47
2023/01/22 13:50:31;;;;;;;200.00;119.30;;;;;;;;;;5008605;28;20189;-47
2023/01/22 13:52:58;;;;;;;196.05;114.32;;;;;;;;;;5014359;28;20193;-47
2023/01/22 13:55:25;;;;;;;165.93;104.63;;;;;;;;;;5008474;28;20262;-47
2023/01/22 13:57:53;;;;;;;192.10;111.90;;;;;;;;;;5010919;28;20187;-47
2023/01/22 14:00:22;;;;;;;172.38;102.75;;;;;;;;;;5007283;28;20310;-47
2023/01/22 14:02:48;;;;;;;163.88;94.38;;;;;;;;;;5008527;28;20181;-47
2023/01/22 14:05:16;;;;;;;157.93;91.93;;;;;;;;;;5008001;28;20185;-47
2023/01/22 14:07:43;;;;;;;139.70;82.57;;;;;;;;;;5007424;28;20374;-47
2023/01/22 14:10:22;;;;;;;143.65;85.95;;;;;;;;;;5011893;28;20191;-47
2023/01/22 14:13:04;;;;;;;141.20;81.47;;;;;;;;;;5013665;28;20188;-47
2023/01/22 14:15:30;;;;;;;122.60;73.07;;;;;;;;;;5012337;28;20199;-48
2023/01/22 14:18:06;;;;;;;118.07;69.72;;;;;;;;;;5010645;28;20509;-47
2023/01/22 14:20:32;;;;;;;117.95;72.65;;;;;;;;;;5009662;28;20571;-47
2023/01/22 14:22:58;;;;;;;113.15;67.18;;;;;;;;;;5013473;28;20219;-47
2023/01/22 14:25:24;;;;;;;103.40;66.38;;;;;;;;;;5008606;28;20220;-47
2023/01/22 14:27:50;;;;;;;98.63;62.55;;;;;;;;;;5011363;28;20611;-48
2023/01/22 14:30:18;;;;;;;91.07;58.05;;;;;;;;;;5008697;28;20215;-47
2023/01/22 14:32:44;;;;;;;89.40;56.90;;;;;;;;;;5013070;28;20183;-47
2023/01/22 14:35:21;;;;;;;88.00;53.47;;;;;;;;;;5005409;28;20184;-47
2023/01/22 14:37:47;;;;;;;88.85;52.35;;;;;;;;;;5013758;28;20459;-47
2023/01/22 14:40:14;;;;;;;83.90;50.92;;;;;;;;;;5001300;28;20193;-47
2023/01/22 14:42:40;;;;;;;78.65;49.85;;;;;;;;;;5006965;28;20184;-47
2023/01/22 14:45:07;;;;;;;80.47;48.83;;;;;;;;;;5007861;28;20191;-47
2023/01/22 14:47:33;;;;;;;71.43;45.28;;;;;;;;;;5012760;28;20207;-47
2023/01/22 14:49:59;;;;;;;71.78;44.75;;;;;;;;;;5007504;28;20184;-47
2023/01/22 14:52:25;;;;;;;68.60;43.60;;;;;;;;;;5012860;28;20184;-48
2023/01/22 14:54:51;;;;;;;66.38;42.13;;;;;;;;;;5014288;28;20215;-47